Time;durP1;ratioP1;P1;durP2;ratioP2;P2;SDS_P1;SDS_P2;PMS_P1;PMS_P2;Temp;Humidity;BMP_temperature;BMP_pressure;BME280_temperature;BME280_humidity;BME280_pressure;Samples;Min_cycle;Max_cycle;Signal;HPM_P1;HPM_P2
2023/06/07 06:16:57;;;;;;;11.55;7.07;;;;;;;;;;5659051;23;20049;-70
2023/06/07 06:19:25;;;;;;;11.00;6.85;;;;;;;;;;5008402;28;20440;-70
2023/06/07 06:21:51;;;;;;;12.80;7.55;;;;;;;;;;5007353;28;20034;-71
2023/06/07 06:24:17;;;;;;;11.02;7.57;;;;;;;;;;5011277;28;20030;-71
2023/06/07 06:26:44;;;;;;;9.25;7.32;;;;;;;;;;5011722;28;20100;-71
2023/06/07 06:29:10;;;;;;;10.80;7.20;;;;;;;;;;5011611;28;20022;-71
2023/06/07 06:31:37;;;;;;;11.77;7.55;;;;;;;;;;5012133;28;20501;-71
2023/06/07 06:34:03;;;;;;;8.20;7.40;;;;;;;;;;5011758;28;20033;-71
2023/06/07 06:36:30;;;;;;;9.43;7.18;;;;;;;;;;5011922;28;20048;-71
2023/06/07 06:38:56;;;;;;;11.80;7.47;;;;;;;;;;5011986;28;20043;-71
2023/06/07 06:41:22;;;;;;;18.15;8.13;;;;;;;;;;5011967;28;20036;-71
2023/06/07 06:43:49;;;;;;;12.30;7.57;;;;;;;;;;5010180;28;20512;-71
2023/06/07 06:46:15;;;;;;;9.85;7.57;;;;;;;;;;5011401;28;20060;-71
2023/06/07 06:48:41;;;;;;;9.55;7.47;;;;;;;;;;5010555;28;20056;-71
2023/06/07 06:51:08;;;;;;;13.15;7.30;;;;;;;;;;5011584;28;20026;-71
2023/06/07 06:53:34;;;;;;;8.85;7.30;;;;;;;;;;4998369;28;20038;-71
2023/06/07 06:56:01;;;;;;;12.20;7.75;;;;;;;;;;5008249;28;20026;-71
2023/06/07 06:58:27;;;;;;;9.38;7.18;;;;;;;;;;5011198;28;20036;-71
2023/06/07 07:00:54;;;;;;;9.90;6.93;;;;;;;;;;5011229;28;20502;-71
2023/06/07 07:03:21;;;;;;;9.10;6.18;;;;;;;;;;5010584;28;20360;-71
2023/06/07 07:05:47;;;;;;;10.52;6.00;;;;;;;;;;5010998;28;20032;-71
2023/06/07 07:08:14;;;;;;;7.35;6.10;;;;;;;;;;4993719;28;20040;-70
2023/06/07 07:10:40;;;;;;;10.52;5.95;;;;;;;;;;5015427;28;20041;-70
2023/06/07 07:13:07;;;;;;;8.73;6.22;;;;;;;;;;4998054;28;20045;-71
2023/06/07 07:15:33;;;;;;;8.45;6.35;;;;;;;;;;5015333;28;20230;-71
2023/06/07 07:17:59;;;;;;;6.28;5.45;;;;;;;;;;5014671;28;20072;-71
2023/06/07 07:20:26;;;;;;;8.70;5.80;;;;;;;;;;4996858;28;20025;-71
2023/06/07 07:22:53;;;;;;;12.48;5.93;;;;;;;;;;4985967;28;20038;-71
2023/06/07 07:25:19;;;;;;;6.35;5.70;;;;;;;;;;5005182;28;20029;-71
2023/06/07 07:27:46;;;;;;;8.35;5.40;;;;;;;;;;5014822;28;20018;-71
2023/06/07 07:30:12;;;;;;;6.65;5.63;;;;;;;;;;5014687;28;20475;-72
2023/06/07 07:32:39;;;;;;;9.85;5.43;;;;;;;;;;5015082;28;20040;-72
2023/06/07 07:35:05;;;;;;;7.15;5.70;;;;;;;;;;5014134;28;20409;-71
2023/06/07 07:37:31;;;;;;;5.70;5.10;;;;;;;;;;5013816;28;20532;-71
2023/06/07 07:39:58;;;;;;;6.68;5.50;;;;;;;;;;5012897;28;20026;-72
2023/06/07 07:42:24;;;;;;;6.50;5.20;;;;;;;;;;5009149;28;20052;-71
2023/06/07 07:44:50;;;;;;;8.38;5.13;;;;;;;;;;5009198;28;20030;-72
2023/06/07 07:47:17;;;;;;;6.45;5.05;;;;;;;;;;5008233;28;20030;-72
2023/06/07 07:49:43;;;;;;;6.75;5.00;;;;;;;;;;5010190;28;20516;-72
2023/06/07 07:52:09;;;;;;;5.28;4.78;;;;;;;;;;5011651;28;20033;-72
2023/06/07 07:54:36;;;;;;;5.70;5.10;;;;;;;;;;5008852;28;20028;-72
2023/06/07 07:57:02;;;;;;;5.63;4.97;;;;;;;;;;5010734;28;20021;-71
2023/06/07 07:59:29;;;;;;;5.38;4.95;;;;;;;;;;5009613;28;20041;-72
2023/06/07 08:01:55;;;;;;;16.50;6.40;;;;;;;;;;5008201;28;20028;-72
2023/06/07 08:04:22;;;;;;;5.65;5.15;;;;;;;;;;5008444;28;20018;-72
2023/06/07 08:06:48;;;;;;;8.32;5.20;;;;;;;;;;5012022;28;20036;-72
2023/06/07 08:09:14;;;;;;;10.65;5.43;;;;;;;;;;5008747;28;20049;-72
2023/06/07 08:11:41;;;;;;;9.88;4.43;;;;;;;;;;5008361;28;20029;-72
2023/06/07 08:14:07;;;;;;;5.65;5.15;;;;;;;;;;5010224;28;20636;-69
2023/06/07 08:16:34;;;;;;;5.60;5.03;;;;;;;;;;5003736;28;20465;-70
2023/06/07 08:19:00;;;;;;;6.47;4.80;;;;;;;;;;4996537;28;20052;-69
2023/06/07 08:21:26;;;;;;;6.30;4.38;;;;;;;;;;5013494;28;20028;-68
2023/06/07 08:23:55;;;;;;;9.48;7.47;;;;;;;;;;5013723;28;20034;-69
2023/06/07 08:26:22;;;;;;;4.25;3.85;;;;;;;;;;5002384;28;20032;-68
2023/06/07 08:28:49;;;;;;;5.35;3.53;;;;;;;;;;5012694;28;20283;-70
2023/06/07 08:31:22;;;;;;;5.55;3.20;;;;;;;;;;5013010;28;20520;-69
2023/06/07 08:33:49;;;;;;;6.80;3.50;;;;;;;;;;5014519;28;20079;-70
2023/06/07 08:36:15;;;;;;;4.93;3.03;;;;;;;;;;5014043;28;20393;-70
2023/06/07 08:38:42;;;;;;;27.15;6.53;;;;;;;;;;5013523;28;20509;-70
2023/06/07 08:41:09;;;;;;;7.25;3.60;;;;;;;;;;5013967;28;20026;-70
2023/06/07 08:43:36;;;;;;;6.03;2.70;;;;;;;;;;5013712;28;20025;-69
2023/06/07 08:46:04;;;;;;;7.03;3.15;;;;;;;;;;4999801;28;20076;-69
2023/06/07 08:48:32;;;;;;;4.70;2.90;;;;;;;;;;5013792;28;20042;-69
2023/06/07 08:51:01;;;;;;;3.55;2.60;;;;;;;;;;5014096;28;20018;-70
2023/06/07 08:53:28;;;;;;;3.72;2.55;;;;;;;;;;5014199;28;20022;-69
2023/06/07 08:55:54;;;;;;;3.83;2.70;;;;;;;;;;5012053;28;20080;-68
2023/06/07 08:58:24;;;;;;;5.53;2.67;;;;;;;;;;5013353;28;20049;-70
2023/06/07 09:00:51;;;;;;;5.30;2.42;;;;;;;;;;5013382;28;20083;-69
2023/06/07 09:03:17;;;;;;;3.97;2.53;;;;;;;;;;5013649;28;20465;-70
2023/06/07 09:05:44;;;;;;;2.20;2.00;;;;;;;;;;5013513;28;20117;-69
2023/06/07 09:08:10;;;;;;;3.50;2.33;;;;;;;;;;5013385;28;20029;-70
2023/06/07 09:10:36;;;;;;;2.67;2.20;;;;;;;;;;5013311;28;20022;-69
2023/06/07 09:13:03;;;;;;;4.20;2.40;;;;;;;;;;5012718;28;20022;-69
2023/06/07 09:15:30;;;;;;;2.38;2.10;;;;;;;;;;5013298;28;20030;-70
2023/06/07 09:18:01;;;;;;;5.10;2.20;;;;;;;;;;5012714;28;20053;-70
2023/06/07 09:20:31;;;;;;;4.10;2.67;;;;;;;;;;4994846;28;20372;-69
2023/06/07 09:23:03;;;;;;;3.28;2.25;;;;;;;;;;5013460;28;20091;-70
2023/06/07 09:25:30;;;;;;;3.03;1.92;;;;;;;;;;5013384;28;20022;-70
2023/06/07 09:27:57;;;;;;;3.67;2.40;;;;;;;;;;5012881;28;20398;-69
2023/06/07 09:30:23;;;;;;;4.47;2.40;;;;;;;;;;5012462;28;20042;-69
2023/06/07 09:32:50;;;;;;;5.25;2.30;;;;;;;;;;5012205;28;20036;-70
2023/06/07 09:35:19;;;;;;;6.20;2.40;;;;;;;;;;5012493;28;20018;-69
2023/06/07 09:37:51;;;;;;;4.47;2.80;;;;;;;;;;5012418;28;20038;-68
2023/06/07 09:40:18;;;;;;;3.70;2.40;;;;;;;;;;5012904;28;20417;-67
2023/06/07 09:42:44;;;;;;;3.13;2.60;;;;;;;;;;5012810;28;20040;-68
2023/06/07 09:45:12;;;;;;;4.90;2.67;;;;;;;;;;5012962;28;20014;-68
2023/06/07 09:47:38;;;;;;;4.00;2.60;;;;;;;;;;5013071;28;20033;-68
2023/06/07 09:50:08;;;;;;;2.70;2.50;;;;;;;;;;5012998;28;20034;-68
2023/06/07 09:52:34;;;;;;;2.47;2.20;;;;;;;;;;5012582;28;20032;-69
2023/06/07 09:55:02;;;;;;;3.90;2.50;;;;;;;;;;5012572;28;20033;-69
2023/06/07 09:57:32;;;;;;;4.05;2.53;;;;;;;;;;5003413;28;20038;-69
2023/06/07 10:00:00;;;;;;;4.28;2.60;;;;;;;;;;5009988;28;20049;-69
2023/06/07 10:02:27;;;;;;;3.22;2.80;;;;;;;;;;5011634;28;20018;-68
2023/06/07 10:04:56;;;;;;;2.45;2.20;;;;;;;;;;5012662;28;20037;-68
2023/06/07 10:07:23;;;;;;;3.08;2.78;;;;;;;;;;5012709;28;20036;-68
2023/06/07 10:09:59;;;;;;;2.80;2.33;;;;;;;;;;5013046;28;20028;-69
2023/06/07 10:12:29;;;;;;;3.83;2.85;;;;;;;;;;5011877;28;20033;-71
2023/06/07 10:14:55;;;;;;;3.20;2.60;;;;;;;;;;5012304;28;20021;-71
2023/06/07 10:17:28;;;;;;;5.18;2.72;;;;;;;;;;5000446;28;20046;-69
2023/06/07 10:19:59;;;;;;;3.20;2.88;;;;;;;;;;5011370;28;20029;-68
2023/06/07 10:22:29;;;;;;;5.13;2.28;;;;;;;;;;5011393;28;20026;-69
2023/06/07 10:25:06;;;;;;;4.35;2.20;;;;;;;;;;5012122;28;20029;-70
2023/06/07 10:27:43;;;;;;;4.72;2.55;;;;;;;;;;5012144;28;20040;-69
2023/06/07 10:30:13;;;;;;;4.50;2.25;;;;;;;;;;5012550;28;20026;-69
2023/06/07 10:32:40;;;;;;;3.28;2.30;;;;;;;;;;5012113;28;20514;-69
2023/06/07 10:35:08;;;;;;;3.80;2.50;;;;;;;;;;5012271;28;20037;-69
2023/06/07 10:37:36;;;;;;;2.83;2.55;;;;;;;;;;5012189;28;20022;-70
2023/06/07 10:40:10;;;;;;;4.82;2.33;;;;;;;;;;5011662;28;20028;-70
2023/06/07 10:42:43;;;;;;;2.67;2.15;;;;;;;;;;5011936;28;20026;-70
2023/06/07 10:45:14;;;;;;;2.97;2.08;;;;;;;;;;5011728;28;20033;-70
2023/06/07 10:47:41;;;;;;;3.67;2.40;;;;;;;;;;5012175;28;20030;-70
2023/06/07 10:50:08;;;;;;;5.30;2.28;;;;;;;;;;5012439;28;20040;-70
2023/06/07 10:52:54;;;;;;;3.75;2.38;;;;;;;;;;5012089;28;20026;-70
2023/06/07 10:55:26;;;;;;;3.22;2.10;;;;;;;;;;5011787;28;20022;-70
2023/06/07 10:57:53;;;;;;;4.15;2.38;;;;;;;;;;5011967;28;20044;-70
2023/06/07 11:00:29;;;;;;;2.55;2.00;;;;;;;;;;5011815;28;20022;-69
2023/06/07 11:03:06;;;;;;;4.13;2.00;;;;;;;;;;5012299;28;20018;-70
2023/06/07 11:05:51;;;;;;;3.30;2.38;;;;;;;;;;4994191;28;20026;-69
2023/06/07 11:08:24;;;;;;;2.65;2.13;;;;;;;;;;5012069;28;20021;-70
2023/06/07 11:10:51;;;;;;;2.95;2.25;;;;;;;;;;5011897;28;20033;-70
2023/06/07 11:13:17;;;;;;;4.63;2.30;;;;;;;;;;5011073;28;20026;-71
2023/06/07 11:15:44;;;;;;;5.63;2.30;;;;;;;;;;5011420;28;20034;-70
2023/06/07 11:18:10;;;;;;;3.95;2.17;;;;;;;;;;5011658;28;20413;-70
2023/06/07 11:20:37;;;;;;;2.97;1.98;;;;;;;;;;5011550;28;20026;-70
2023/06/07 11:23:22;;;;;;;2.40;2.20;;;;;;;;;;5012102;28;20022;-73
2023/06/07 11:25:50;;;;;;;2.45;2.00;;;;;;;;;;4994257;28;20030;-70
2023/06/07 11:28:16;;;;;;;4.97;2.22;;;;;;;;;;5011782;28;20018;-70
2023/06/07 11:30:43;;;;;;;2.58;1.95;;;;;;;;;;5011978;28;20044;-70
2023/06/07 11:33:15;;;;;;;2.60;2.28;;;;;;;;;;5009172;28;20500;-70
2023/06/07 11:35:42;;;;;;;7.45;2.38;;;;;;;;;;5011968;28;20032;-70
2023/06/07 11:38:08;;;;;;;6.13;2.40;;;;;;;;;;5011334;28;20042;-70
2023/06/07 11:40:35;;;;;;;3.97;2.15;;;;;;;;;;5011596;28;20508;-70
2023/06/07 11:43:02;;;;;;;2.78;2.20;;;;;;;;;;5011885;28;20022;-70
2023/06/07 11:45:29;;;;;;;3.50;2.30;;;;;;;;;;5011805;28;20030;-70
2023/06/07 11:48:01;;;;;;;2.42;2.05;;;;;;;;;;5011239;28;20026;-70
2023/06/07 11:50:27;;;;;;;3.85;2.42;;;;;;;;;;5011691;28;20040;-70
2023/06/07 11:52:54;;;;;;;2.00;1.83;;;;;;;;;;5011156;28;20033;-70
2023/06/07 11:55:20;;;;;;;2.03;1.83;;;;;;;;;;4995599;28;20030;-70
2023/06/07 11:57:48;;;;;;;2.70;2.35;;;;;;;;;;4997481;28;20044;-69
2023/06/07 12:00:16;;;;;;;4.63;2.03;;;;;;;;;;5014981;28;20018;-70
2023/06/07 12:02:44;;;;;;;4.30;2.13;;;;;;;;;;5014974;28;20510;-69
2023/06/07 12:05:10;;;;;;;5.53;2.40;;;;;;;;;;5014873;28;20030;-69
2023/06/07 12:07:38;;;;;;;3.33;1.98;;;;;;;;;;5014780;28;20036;-70
2023/06/07 12:10:05;;;;;;;4.13;2.05;;;;;;;;;;5015343;28;20025;-69
2023/06/07 12:12:32;;;;;;;3.95;1.95;;;;;;;;;;5014703;28;20421;-70
2023/06/07 12:15:05;;;;;;;2.45;1.95;;;;;;;;;;5015072;28;20037;-69
2023/06/07 12:17:35;;;;;;;2.20;2.00;;;;;;;;;;5014529;28;20053;-69
2023/06/07 12:20:11;;;;;;;6.80;2.10;;;;;;;;;;5014580;28;20076;-70
2023/06/07 12:22:40;;;;;;;2.70;1.77;;;;;;;;;;5014116;28;20032;-69
2023/06/07 12:25:12;;;;;;;3.40;2.00;;;;;;;;;;5014474;28;20552;-70
2023/06/07 12:27:38;;;;;;;4.70;2.10;;;;;;;;;;5014476;28;20064;-69
2023/06/07 12:30:06;;;;;;;3.22;2.00;;;;;;;;;;5014611;28;20032;-69
2023/06/07 12:32:33;;;;;;;4.07;2.35;;;;;;;;;;5014789;28;20052;-70
2023/06/07 12:35:01;;;;;;;2.92;1.67;;;;;;;;;;5014606;28;20026;-69
2023/06/07 12:37:27;;;;;;;7.35;2.15;;;;;;;;;;5014009;28;20034;-70
2023/06/07 12:39:54;;;;;;;4.63;2.03;;;;;;;;;;5014303;28;20030;-69
2023/06/07 12:42:20;;;;;;;2.25;1.60;;;;;;;;;;5014473;28;20025;-70
2023/06/07 12:44:47;;;;;;;2.65;1.65;;;;;;;;;;5014285;28;20030;-69
2023/06/07 12:47:13;;;;;;;2.70;1.92;;;;;;;;;;5014090;28;20356;-70
2023/06/07 12:49:42;;;;;;;3.55;1.98;;;;;;;;;;5014611;28;20034;-69
2023/06/07 12:52:10;;;;;;;3.15;1.98;;;;;;;;;;5013668;28;20415;-69
2023/06/07 12:54:37;;;;;;;3.13;2.15;;;;;;;;;;5014049;28;20475;-69
2023/06/07 12:57:03;;;;;;;3.35;1.98;;;;;;;;;;5014099;28;20034;-69
2023/06/07 12:59:29;;;;;;;2.35;1.90;;;;;;;;;;5014173;28;20022;-69
2023/06/07 13:01:56;;;;;;;5.75;1.83;;;;;;;;;;5014006;28;20026;-69
2023/06/07 13:04:23;;;;;;;2.30;1.73;;;;;;;;;;5013756;28;20022;-69
2023/06/07 13:06:49;;;;;;;2.25;2.03;;;;;;;;;;5012542;28;20029;-69
2023/06/07 13:09:16;;;;;;;3.45;1.95;;;;;;;;;;5013855;28;20022;-70
2023/06/07 13:11:43;;;;;;;3.40;1.75;;;;;;;;;;5013926;28;20022;-69
2023/06/07 13:14:09;;;;;;;4.88;1.85;;;;;;;;;;5013426;28;20036;-69
2023/06/07 13:16:35;;;;;;;5.60;1.73;;;;;;;;;;5012975;28;20264;-69
2023/06/07 13:19:02;;;;;;;2.03;1.60;;;;;;;;;;5013757;28;20088;-69
2023/06/07 13:21:29;;;;;;;2.58;1.80;;;;;;;;;;5013331;28;20079;-69
2023/06/07 13:23:56;;;;;;;3.53;1.77;;;;;;;;;;5013176;28;20026;-69
2023/06/07 13:26:22;;;;;;;6.72;2.25;;;;;;;;;;4995632;28;20040;-68
2023/06/07 13:28:49;;;;;;;4.60;1.77;;;;;;;;;;5013513;28;20032;-68
2023/06/07 13:31:15;;;;;;;4.13;1.77;;;;;;;;;;5013584;28;20022;-69
2023/06/07 13:33:43;;;;;;;2.88;1.90;;;;;;;;;;5012557;28;20025;-69
2023/06/07 13:36:09;;;;;;;1.90;1.58;;;;;;;;;;5012886;28;20026;-69
2023/06/07 13:38:37;;;;;;;3.97;1.73;;;;;;;;;;5012921;28;20037;-69
2023/06/07 13:41:03;;;;;;;4.88;1.88;;;;;;;;;;5013364;28;20026;-69
2023/06/07 13:43:30;;;;;;;3.65;2.20;;;;;;;;;;4979443;28;20030;-70
2023/06/07 13:45:56;;;;;;;4.15;1.67;;;;;;;;;;5012789;28;20026;-72
2023/06/07 13:48:22;;;;;;;2.58;1.80;;;;;;;;;;5012962;28;20097;-69
2023/06/07 13:50:49;;;;;;;2.80;1.80;;;;;;;;;;5013277;28;20022;-69
2023/06/07 13:53:18;;;;;;;2.67;1.70;;;;;;;;;;5013160;28;20018;-69
2023/06/07 13:55:47;;;;;;;4.00;2.15;;;;;;;;;;5013008;28;20029;-69
2023/06/07 13:58:17;;;;;;;2.35;2.03;;;;;;;;;;5012941;28;20170;-69
2023/06/07 14:00:44;;;;;;;2.75;1.80;;;;;;;;;;5012643;28;20517;-69
2023/06/07 14:03:10;;;;;;;3.03;1.90;;;;;;;;;;5012372;28;20021;-69
2023/06/07 14:05:37;;;;;;;3.63;1.92;;;;;;;;;;5012777;28;20048;-69
2023/06/07 14:08:03;;;;;;;1.92;1.60;;;;;;;;;;5012807;28;20034;-69
2023/06/07 14:10:30;;;;;;;1.83;1.45;;;;;;;;;;5013183;28;20014;-69
2023/06/07 14:12:56;;;;;;;4.63;1.67;;;;;;;;;;5012909;28;20026;-69
2023/06/07 14:15:23;;;;;;;1.95;1.75;;;;;;;;;;5012824;28;20021;-69
2023/06/07 14:17:50;;;;;;;3.63;2.15;;;;;;;;;;5012013;28;20103;-69
2023/06/07 14:20:16;;;;;;;2.85;1.70;;;;;;;;;;5012581;28;20022;-69
2023/06/07 14:22:42;;;;;;;1.92;1.50;;;;;;;;;;4995215;28;20030;-69
2023/06/07 14:25:09;;;;;;;4.68;1.80;;;;;;;;;;5012888;28;20033;-69
2023/06/07 14:27:35;;;;;;;2.13;1.80;;;;;;;;;;5012725;28;20036;-69
2023/06/07 14:30:02;;;;;;;2.63;1.88;;;;;;;;;;5012627;28;20398;-69
2023/06/07 14:32:29;;;;;;;1.70;1.50;;;;;;;;;;5012451;28;20025;-69
2023/06/07 14:34:56;;;;;;;3.15;1.90;;;;;;;;;;5012537;28;20398;-69
2023/06/07 14:37:22;;;;;;;4.10;1.95;;;;;;;;;;5012403;28;20581;-69
2023/06/07 14:39:48;;;;;;;7.00;1.52;;;;;;;;;;5012381;28;20026;-68
2023/06/07 14:42:15;;;;;;;2.30;1.50;;;;;;;;;;5012708;28;20026;-69
2023/06/07 14:44:41;;;;;;;3.15;1.70;;;;;;;;;;5012537;28;20026;-69
2023/06/07 14:47:08;;;;;;;2.78;1.60;;;;;;;;;;5011892;28;20508;-69
2023/06/07 14:49:34;;;;;;;2.67;1.60;;;;;;;;;;5012325;28;20399;-69
2023/06/07 14:52:00;;;;;;;4.50;2.13;;;;;;;;;;4994874;28;20486;-69
2023/06/07 14:54:27;;;;;;;2.78;1.70;;;;;;;;;;5011985;28;20026;-70
2023/06/07 14:56:53;;;;;;;3.90;1.75;;;;;;;;;;5009926;28;20126;-69
2023/06/07 14:59:20;;;;;;;2.55;1.80;;;;;;;;;;5012180;28;20033;-69
2023/06/07 15:01:46;;;;;;;3.45;1.60;;;;;;;;;;5011663;28;20029;-72
2023/06/07 15:04:14;;;;;;;4.05;2.20;;;;;;;;;;5012148;28;20494;-71
2023/06/07 15:06:41;;;;;;;1.88;1.70;;;;;;;;;;5011764;28;20034;-71
2023/06/07 15:09:07;;;;;;;3.00;1.75;;;;;;;;;;5012282;28;20028;-71
2023/06/07 15:11:33;;;;;;;2.13;1.80;;;;;;;;;;5012316;28;20293;-72
2023/06/07 15:14:00;;;;;;;2.88;1.80;;;;;;;;;;5012143;28;20405;-71
2023/06/07 15:16:26;;;;;;;3.67;2.08;;;;;;;;;;5011721;28;20046;-72
2023/06/07 15:18:52;;;;;;;3.08;1.63;;;;;;;;;;4994712;28;20038;-71
2023/06/07 15:21:19;;;;;;;3.03;1.80;;;;;;;;;;5011874;28;20028;-72
2023/06/07 15:23:45;;;;;;;5.53;1.90;;;;;;;;;;5012066;28;20040;-71
2023/06/07 15:26:11;;;;;;;1.90;1.70;;;;;;;;;;5012309;28;20018;-72
2023/06/07 15:28:38;;;;;;;5.45;1.67;;;;;;;;;;5012115;28;20014;-71
2023/06/07 15:31:04;;;;;;;3.03;1.77;;;;;;;;;;5015181;28;20034;-72
2023/06/07 15:33:30;;;;;;;2.85;1.50;;;;;;;;;;5015922;28;20478;-72
2023/06/07 15:35:57;;;;;;;2.47;1.90;;;;;;;;;;5015601;28;20513;-72
2023/06/07 15:38:23;;;;;;;3.50;1.70;;;;;;;;;;5015740;28;20107;-71
2023/06/07 15:40:49;;;;;;;2.03;1.40;;;;;;;;;;5015999;28;20020;-72
2023/06/07 15:43:16;;;;;;;3.95;1.88;;;;;;;;;;5015813;28;20030;-71
2023/06/07 15:45:42;;;;;;;2.92;1.55;;;;;;;;;;5015063;28;20009;-72
2023/06/07 15:48:08;;;;;;;3.88;1.80;;;;;;;;;;5015772;28;20432;-72
2023/06/07 15:50:34;;;;;;;4.60;1.67;;;;;;;;;;5015907;28;20032;-72
2023/06/07 15:53:02;;;;;;;3.20;1.70;;;;;;;;;;5015915;28;20028;-72
2023/06/07 15:55:29;;;;;;;5.43;1.80;;;;;;;;;;5015517;28;20030;-72
2023/06/07 15:57:56;;;;;;;3.03;1.77;;;;;;;;;;5015227;28;20508;-72
2023/06/07 16:00:22;;;;;;;5.88;2.00;;;;;;;;;;5015302;28;20024;-72
2023/06/07 16:02:48;;;;;;;2.92;2.00;;;;;;;;;;5015437;28;20473;-71
2023/06/07 16:05:14;;;;;;;2.28;2.08;;;;;;;;;;4998243;28;20030;-72
2023/06/07 16:07:41;;;;;;;3.88;1.88;;;;;;;;;;5015445;28;20026;-72
2023/06/07 16:10:07;;;;;;;5.20;1.80;;;;;;;;;;5015274;28;20020;-72
2023/06/07 16:12:34;;;;;;;4.15;1.77;;;;;;;;;;4997603;28;20224;-69
2023/06/07 16:15:00;;;;;;;3.00;2.00;;;;;;;;;;5014935;28;20022;-69
2023/06/07 16:17:26;;;;;;;4.03;1.98;;;;;;;;;;5014733;28;20049;-69
2023/06/07 16:19:53;;;;;;;2.60;1.67;;;;;;;;;;4997565;28;20498;-69
2023/06/07 16:22:20;;;;;;;4.22;1.65;;;;;;;;;;5015167;28;20022;-69
2023/06/07 16:24:46;;;;;;;4.45;1.75;;;;;;;;;;5015004;28;20018;-69
2023/06/07 16:27:12;;;;;;;2.75;1.80;;;;;;;;;;5014807;28;20068;-69
2023/06/07 16:29:39;;;;;;;5.30;1.98;;;;;;;;;;5014618;28;20040;-69
2023/06/07 16:32:05;;;;;;;2.10;1.67;;;;;;;;;;5014914;28;20033;-69
2023/06/07 16:34:32;;;;;;;3.55;1.70;;;;;;;;;;5015015;28;20029;-69
2023/06/07 16:36:58;;;;;;;3.17;2.05;;;;;;;;;;5014781;28;20032;-69
2023/06/07 16:39:24;;;;;;;2.35;1.52;;;;;;;;;;5015048;28;20048;-69
2023/06/07 16:41:50;;;;;;;4.20;1.80;;;;;;;;;;5013408;28;20034;-69
2023/06/07 16:44:18;;;;;;;2.78;1.90;;;;;;;;;;5014479;28;20056;-69
2023/06/07 16:46:44;;;;;;;2.17;1.80;;;;;;;;;;5014773;28;20475;-69
2023/06/07 16:49:10;;;;;;;3.28;2.13;;;;;;;;;;5014677;28;20026;-69
2023/06/07 16:51:37;;;;;;;3.00;1.73;;;;;;;;;;5014669;28;20436;-69
2023/06/07 16:54:03;;;;;;;2.53;2.20;;;;;;;;;;5014583;28;20034;-70
2023/06/07 16:56:29;;;;;;;3.60;2.00;;;;;;;;;;5014383;28;20028;-69
2023/06/07 16:58:56;;;;;;;2.80;1.95;;;;;;;;;;5014162;28;20037;-69
2023/06/07 17:01:23;;;;;;;2.88;2.00;;;;;;;;;;5014407;28;20030;-69
2023/06/07 17:03:49;;;;;;;2.65;1.92;;;;;;;;;;5014299;28;20482;-69
2023/06/07 17:06:16;;;;;;;4.50;2.10;;;;;;;;;;5014034;28;20029;-71
2023/06/07 17:08:42;;;;;;;4.88;2.30;;;;;;;;;;5014503;28;20037;-70
2023/06/07 17:11:08;;;;;;;2.72;2.10;;;;;;;;;;5014032;28;20018;-69
2023/06/07 17:13:38;;;;;;;6.65;2.50;;;;;;;;;;5014325;28;20022;-69
2023/06/07 17:16:05;;;;;;;3.60;2.20;;;;;;;;;;5013978;28;20495;-69
2023/06/07 17:18:31;;;;;;;4.65;2.67;;;;;;;;;;5013599;28;20040;-70
2023/06/07 17:20:57;;;;;;;5.00;2.60;;;;;;;;;;5013986;28;20022;-70
2023/06/07 17:23:24;;;;;;;2.50;2.30;;;;;;;;;;5014152;28;20042;-69
2023/06/07 17:25:50;;;;;;;4.65;2.10;;;;;;;;;;5013401;28;20476;-70
2023/06/07 17:28:16;;;;;;;3.38;2.35;;;;;;;;;;5013975;28;20038;-70
2023/06/07 17:30:42;;;;;;;3.03;2.40;;;;;;;;;;5013813;28;20018;-70
2023/06/07 17:33:09;;;;;;;3.33;2.30;;;;;;;;;;5013874;28;20048;-69
2023/06/07 17:35:35;;;;;;;4.45;2.70;;;;;;;;;;5013742;28;20056;-69
2023/06/07 17:38:01;;;;;;;5.38;2.50;;;;;;;;;;5013765;28;20087;-69
2023/06/07 17:40:28;;;;;;;6.65;2.47;;;;;;;;;;5013437;28;20036;-69
2023/06/07 17:42:57;;;;;;;6.38;2.25;;;;;;;;;;5013641;28;20037;-70
2023/06/07 17:45:23;;;;;;;5.82;3.00;;;;;;;;;;5013226;28;20033;-70
2023/06/07 17:47:50;;;;;;;2.53;2.15;;;;;;;;;;5013502;28;20018;-70
2023/06/07 17:50:17;;;;;;;5.22;2.60;;;;;;;;;;5013669;28;20080;-69
2023/06/07 17:52:44;;;;;;;4.60;2.90;;;;;;;;;;5012844;28;20413;-70
2023/06/07 17:55:10;;;;;;;3.00;2.45;;;;;;;;;;5013253;28;20040;-70
2023/06/07 17:57:37;;;;;;;3.67;2.70;;;;;;;;;;5013304;28;20417;-70
2023/06/07 18:00:03;;;;;;;4.00;2.65;;;;;;;;;;5013294;28;20557;-69
2023/06/07 18:02:30;;;;;;;4.13;2.58;;;;;;;;;;5013254;28;20041;-70
2023/06/07 18:04:56;;;;;;;3.45;2.78;;;;;;;;;;5013316;28;20502;-70
2023/06/07 18:07:22;;;;;;;5.43;2.80;;;;;;;;;;5012863;28;20032;-70
2023/06/07 18:09:49;;;;;;;4.35;3.03;;;;;;;;;;5012810;28;20037;-69
2023/06/07 18:12:16;;;;;;;3.78;2.58;;;;;;;;;;5013184;28;20406;-70
2023/06/07 18:14:43;;;;;;;5.93;3.45;;;;;;;;;;5013314;28;20044;-70
2023/06/07 18:17:09;;;;;;;4.43;3.10;;;;;;;;;;5012699;28;20041;-70
2023/06/07 18:19:36;;;;;;;3.20;2.70;;;;;;;;;;5013176;28;20034;-70
2023/06/07 18:22:02;;;;;;;3.60;2.92;;;;;;;;;;5012653;28;20026;-70
2023/06/07 18:24:29;;;;;;;6.07;3.05;;;;;;;;;;5012667;28;20025;-70
2023/06/07 18:26:55;;;;;;;4.38;3.42;;;;;;;;;;5012787;28;20045;-69
2023/06/07 18:29:22;;;;;;;5.35;2.90;;;;;;;;;;5012856;28;20025;-70
2023/06/07 18:31:48;;;;;;;5.13;2.88;;;;;;;;;;5012731;28;20032;-70
2023/06/07 18:34:19;;;;;;;7.65;2.90;;;;;;;;;;5012712;28;20014;-69
2023/06/07 18:36:48;;;;;;;5.18;2.92;;;;;;;;;;5012675;28;20030;-69
2023/06/07 18:39:14;;;;;;;4.93;3.00;;;;;;;;;;5012263;28;20045;-70
2023/06/07 18:41:40;;;;;;;5.35;2.75;;;;;;;;;;5012454;28;20024;-70
2023/06/07 18:44:07;;;;;;;4.80;3.10;;;;;;;;;;5012554;28;20441;-69
2023/06/07 18:46:33;;;;;;;4.43;2.83;;;;;;;;;;5012279;28;20022;-70
2023/06/07 18:49:00;;;;;;;4.20;2.70;;;;;;;;;;5012328;28;20028;-70
2023/06/07 18:51:26;;;;;;;3.75;3.25;;;;;;;;;;5012454;28;20060;-69
2023/06/07 18:53:53;;;;;;;5.85;2.92;;;;;;;;;;5011992;28;20079;-70
2023/06/07 18:56:19;;;;;;;4.68;3.17;;;;;;;;;;5012214;28;20044;-70
2023/06/07 18:58:46;;;;;;;3.83;2.80;;;;;;;;;;5011932;28;20041;-70
2023/06/07 19:01:14;;;;;;;5.50;2.85;;;;;;;;;;5012256;28;20017;-70
2023/06/07 19:03:41;;;;;;;3.50;2.63;;;;;;;;;;5012004;28;20032;-70
2023/06/07 19:06:09;;;;;;;5.43;2.33;;;;;;;;;;5012203;28;20018;-70
2023/06/07 19:08:36;;;;;;;4.57;2.80;;;;;;;;;;5011966;28;20022;-70
2023/06/07 19:11:02;;;;;;;4.88;2.53;;;;;;;;;;5012181;28;20018;-70
2023/06/07 19:13:29;;;;;;;4.00;2.58;;;;;;;;;;5012400;28;20393;-70
2023/06/07 19:15:56;;;;;;;5.78;3.20;;;;;;;;;;5012279;28;20379;-70
2023/06/07 19:18:22;;;;;;;3.60;2.53;;;;;;;;;;5011914;28;20050;-70
2023/06/07 19:20:49;;;;;;;6.78;2.97;;;;;;;;;;5011995;28;20392;-70
2023/06/07 19:23:15;;;;;;;4.30;2.80;;;;;;;;;;5011593;28;20030;-70
2023/06/07 19:25:42;;;;;;;4.97;3.05;;;;;;;;;;5011807;28;20500;-70
2023/06/07 19:28:08;;;;;;;3.97;2.85;;;;;;;;;;5011902;28;20026;-70
2023/06/07 19:30:34;;;;;;;3.63;2.67;;;;;;;;;;5012396;28;20030;-70
2023/06/07 19:33:02;;;;;;;5.78;3.50;;;;;;;;;;5012249;28;20033;-70
2023/06/07 19:35:28;;;;;;;4.43;3.15;;;;;;;;;;5011915;28;20456;-70
2023/06/07 19:37:55;;;;;;;8.68;3.50;;;;;;;;;;5011516;28;20034;-70
2023/06/07 19:40:26;;;;;;;6.65;3.40;;;;;;;;;;5012881;28;20028;-70
2023/06/07 19:42:53;;;;;;;8.02;3.50;;;;;;;;;;5011857;28;20482;-70
2023/06/07 19:45:19;;;;;;;6.00;3.08;;;;;;;;;;5011800;28;20377;-69
2023/06/07 19:47:45;;;;;;;5.80;3.10;;;;;;;;;;5011927;28;20024;-69
2023/06/07 19:50:12;;;;;;;6.57;3.20;;;;;;;;;;5011692;28;20030;-69
2023/06/07 19:52:39;;;;;;;3.40;2.65;;;;;;;;;;5011559;28;20026;-69
2023/06/07 19:55:05;;;;;;;5.68;2.70;;;;;;;;;;5011704;28;20356;-69
2023/06/07 19:57:32;;;;;;;5.88;3.22;;;;;;;;;;5011837;28;20038;-69
2023/06/07 19:59:58;;;;;;;3.08;2.60;;;;;;;;;;4994369;28;20038;-69
2023/06/07 20:02:24;;;;;;;4.45;2.50;;;;;;;;;;5012077;28;20025;-69
2023/06/07 20:04:51;;;;;;;4.78;3.08;;;;;;;;;;5011734;28;20025;-70
2023/06/07 20:07:17;;;;;;;3.85;3.00;;;;;;;;;;5011700;28;20032;-69
2023/06/07 20:09:43;;;;;;;7.03;3.10;;;;;;;;;;5011960;28;20022;-69
2023/06/07 20:12:13;;;;;;;5.95;2.85;;;;;;;;;;5011820;28;20022;-69
2023/06/07 20:14:40;;;;;;;5.00;2.65;;;;;;;;;;5012020;28;20018;-69
2023/06/07 20:17:09;;;;;;;5.72;2.90;;;;;;;;;;4993296;28;20410;-69
2023/06/07 20:19:36;;;;;;;5.13;2.63;;;;;;;;;;4995507;28;20083;-68
2023/06/07 20:22:02;;;;;;;3.80;2.80;;;;;;;;;;4995526;28;20026;-69
2023/06/07 20:24:29;;;;;;;3.78;2.80;;;;;;;;;;4995108;28;20034;-69
2023/06/07 20:26:56;;;;;;;3.85;2.70;;;;;;;;;;4995413;28;20022;-69
2023/06/07 20:29:22;;;;;;;2.72;2.45;;;;;;;;;;4995172;28;20113;-70
2023/06/07 20:31:52;;;;;;;4.90;2.85;;;;;;;;;;4995301;28;20018;-70
2023/06/07 20:34:19;;;;;;;4.73;2.47;;;;;;;;;;4994899;28;20517;-69
2023/06/07 20:36:46;;;;;;;5.50;2.42;;;;;;;;;;4995126;28;20034;-69
2023/06/07 20:39:12;;;;;;;3.05;2.63;;;;;;;;;;4995098;28;20038;-69
2023/06/07 20:41:39;;;;;;;4.68;2.58;;;;;;;;;;4995137;28;20394;-69
2023/06/07 20:44:07;;;;;;;3.85;2.90;;;;;;;;;;4995209;28;20025;-69
2023/06/07 20:46:33;;;;;;;6.63;2.40;;;;;;;;;;4994889;28;20023;-69
2023/06/07 20:49:04;;;;;;;4.93;2.85;;;;;;;;;;4994830;28;20026;-69
2023/06/07 20:51:31;;;;;;;;;;;;;;;;;;4995323;28;20040;-69
2023/06/07 20:53:57;;;;;;;4.60;3.17;;;;;;;;;;4994781;28;19909;-69
2023/06/07 20:56:24;;;;;;;4.85;2.80;;;;;;;;;;4994773;28;20060;-69
2023/06/07 20:58:50;;;;;;;3.33;3.03;;;;;;;;;;4994681;28;20034;-69